Time;durP1;ratioP1;P1;durP2;ratioP2;P2;SDS_P1;SDS_P2;PMS_P1;PMS_P2;Temp;Humidity;BMP_temperature;BMP_pressure;BME280_temperature;BME280_humidity;BME280_pressure;Samples;Min_cycle;Max_cycle;Signal;HPM_P1;HPM_P2
2021/04/16 00:00:40;;;;;;;9.85;4.22;;;8.50;60.40;;;;;;5078668;28;20021;-61
2021/04/16 00:03:06;;;;;;;11.65;4.30;;;8.50;60.40;;;;;;5080659;28;20032;-61
2021/04/16 00:05:31;;;;;;;10.07;4.28;;;8.50;60.50;;;;;;5065431;28;20024;-61
2021/04/16 00:07:57;;;;;;;18.42;4.50;;;8.50;60.70;;;;;;5052622;28;20030;-61
2021/04/16 00:10:35;;;;;;;12.50;4.30;;;8.50;60.60;;;;;;5061371;28;20024;-61
2021/04/16 00:13:00;;;;;;;10.43;4.00;;;8.40;60.60;;;;;;5063408;28;20379;-61
2021/04/16 00:15:26;;;;;;;13.05;4.00;;;8.40;60.60;;;;;;5060708;28;20029;-61
2021/04/16 00:17:52;;;;;;;12.90;4.00;;;8.40;60.80;;;;;;5060737;28;20032;-61
2021/04/16 00:20:19;;;;;;;9.45;3.88;;;8.40;60.80;;;;;;5062163;28;20028;-61
2021/04/16 00:22:45;;;;;;;13.70;4.03;;;8.40;60.80;;;;;;5053800;28;20035;-61
2021/04/16 00:25:15;;;;;;;9.60;3.80;;;8.40;60.80;;;;;;5076382;28;20028;-61
2021/04/16 00:27:41;;;;;;;9.90;3.78;;;8.30;61.50;;;;;;5084097;28;20421;-61
2021/04/16 00:30:08;;;;;;;13.55;4.25;;;8.30;60.90;;;;;;5062730;28;20074;-61
2021/04/16 00:32:34;;;;;;;10.35;3.72;;;8.30;60.90;;;;;;5085733;28;20491;-61
2021/04/16 00:35:00;;;;;;;14.70;4.15;;;8.30;60.90;;;;;;5074555;28;20024;-61
2021/04/16 00:37:25;;;;;;;17.92;4.32;;;8.30;61.00;;;;;;5076058;28;20031;-61
2021/04/16 00:39:51;;;;;;;11.15;3.72;;;8.30;61.00;;;;;;5086938;28;20036;-61
2021/04/16 00:42:17;;;;;;;11.88;4.47;;;8.20;61.10;;;;;;5071640;28;20515;-61
2021/04/16 00:44:43;;;;;;;9.95;4.07;;;8.20;61.00;;;;;;5073906;28;20080;-64
2021/04/16 00:47:13;;;;;;;10.25;3.83;;;8.20;61.20;;;;;;5076204;28;20045;-61
2021/04/16 00:49:44;;;;;;;9.82;3.58;;;8.20;61.30;;;;;;5057639;28;20472;-61
2021/04/16 00:52:10;;;;;;;12.00;3.55;;;8.20;61.30;;;;;;5037593;28;20021;-61
2021/04/16 00:54:40;;;;;;;12.80;3.83;;;8.20;61.30;;;;;;5053389;28;20025;-61
2021/04/16 00:57:07;;;;;;;13.30;3.90;;;8.10;61.20;;;;;;5069257;28;20062;-61
2021/04/16 00:59:33;;;;;;;9.52;3.60;;;8.10;61.30;;;;;;5072545;28;20422;-61
2021/04/16 01:02:00;;;;;;;14.02;3.83;;;8.10;62.00;;;;;;5073223;28;20017;-61
2021/04/16 01:04:26;;;;;;;14.20;3.80;;;8.10;61.40;;;;;;5074503;28;20028;-61
2021/04/16 01:06:51;;;;;;;8.40;3.80;;;8.10;61.50;;;;;;5044996;28;20033;-61
2021/04/16 01:09:17;;;;;;;10.40;3.78;;;8.00;61.30;;;;;;5074287;28;20262;-61
2021/04/16 01:11:42;;;;;;;5.72;3.35;;;8.00;61.40;;;;;;5087436;28;20036;-61
2021/04/16 01:14:08;;;;;;;8.82;3.53;;;8.00;61.50;;;;;;5065795;28;20029;-61
2021/04/16 01:16:34;;;;;;;11.98;3.50;;;8.00;61.60;;;;;;5049523;28;20025;-61
2021/04/16 01:19:01;;;;;;;8.90;3.67;;;8.00;61.70;;;;;;5054362;28;20039;-61
2021/04/16 01:21:42;;;;;;;6.05;3.28;;;7.90;61.50;;;;;;5070644;28;20238;-61
2021/04/16 01:24:25;;;;;;;9.75;4.10;;;7.90;61.60;;;;;;5082674;28;20372;-61
2021/04/16 01:26:51;;;;;;;7.00;3.40;;;7.90;61.60;;;;;;5061536;28;20082;-61
2021/04/16 01:29:16;;;;;;;10.85;3.42;;;7.90;61.80;;;;;;5060980;28;20487;-61
2021/04/16 01:31:48;;;;;;;6.82;3.20;;;7.90;61.70;;;;;;5075700;28;20039;-61
2021/04/16 01:34:17;;;;;;;7.60;3.47;;;7.80;61.80;;;;;;5088515;28;20105;-61
2021/04/16 01:36:43;;;;;;;9.80;3.95;;;7.90;61.90;;;;;;5068898;28;20100;-61
2021/04/16 01:39:09;;;;;;;9.15;3.60;;;7.80;61.90;;;;;;5083620;28;20099;-61
2021/04/16 01:41:34;;;;;;;7.15;3.80;;;7.80;62.10;;;;;;5090533;28;20024;-60
2021/04/16 01:44:02;;;;;;;9.98;3.38;;;7.70;62.00;;;;;;5083980;28;20090;-61
2021/04/16 01:46:28;;;;;;;8.23;3.35;;;7.70;62.00;;;;;;5080394;28;20116;-61
2021/04/16 01:48:58;;;;;;;11.10;3.58;;;7.70;62.10;;;;;;5065150;28;20449;-61
2021/04/16 01:51:29;;;;;;;7.55;3.45;;;7.70;62.10;;;;;;5045969;28;20518;-61
2021/04/16 01:54:03;;;;;;;11.05;3.95;;;7.70;62.20;;;;;;5064572;28;20035;-61
2021/04/16 01:56:29;;;;;;;5.20;2.93;;;7.70;62.30;;;;;;5072909;28;20013;-61
2021/04/16 01:58:54;;;;;;;8.40;3.33;;;7.70;62.20;;;;;;5072457;28;20286;-61
2021/04/16 02:01:20;;;;;;;4.35;3.00;;;7.60;62.10;;;;;;5074691;28;20043;-61
2021/04/16 02:03:45;;;;;;;10.77;3.92;;;7.60;62.20;;;;;;5063489;28;20071;-61
2021/04/16 02:06:11;;;;;;;10.00;3.08;;;7.60;62.20;;;;;;5074666;28;20036;-61
2021/04/16 02:08:36;;;;;;;9.13;3.67;;;7.60;62.90;;;;;;5079893;28;20445;-61
2021/04/16 02:11:02;;;;;;;6.20;3.15;;;7.60;62.20;;;;;;5062612;28;20107;-61
2021/04/16 02:13:27;;;;;;;7.43;3.03;;;7.60;62.50;;;;;;5068449;28;20038;-61
2021/04/16 02:15:53;;;;;;;10.43;3.75;;;7.50;62.50;;;;;;5063328;28;20475;-61
2021/04/16 02:18:19;;;;;;;10.43;3.40;;;7.50;62.50;;;;;;5065479;28;20048;-61
2021/04/16 02:20:44;;;;;;;5.65;3.42;;;7.50;62.40;;;;;;5082856;28;20028;-61
2021/04/16 02:23:10;;;;;;;6.80;3.50;;;7.50;62.60;;;;;;5073411;28;20032;-61
2021/04/16 02:25:35;;;;;;;6.95;3.33;;;7.50;62.60;;;;;;5073457;28;20029;-61
2021/04/16 02:28:01;;;;;;;6.38;3.35;;;7.40;62.50;;;;;;5065535;28;20020;-61
2021/04/16 02:30:33;;;;;;;8.13;3.30;;;7.40;62.50;;;;;;5063085;28;20041;-61
2021/04/16 02:32:58;;;;;;;6.00;3.08;;;7.50;62.60;;;;;;5062129;28;20496;-61
2021/04/16 02:35:24;;;;;;;6.07;3.33;;;7.40;62.60;;;;;;5049315;28;20029;-61
2021/04/16 02:37:50;;;;;;;8.05;3.10;;;7.40;62.60;;;;;;5053015;28;20028;-61
2021/04/16 02:40:17;;;;;;;6.10;2.80;;;7.40;62.70;;;;;;5082845;28;20040;-61
2021/04/16 02:42:42;;;;;;;5.65;3.30;;;7.40;62.70;;;;;;5065327;28;20140;-61
2021/04/16 02:45:09;;;;;;;3.75;2.75;;;7.30;62.90;;;;;;5080883;28;20034;-61
2021/04/16 02:47:35;;;;;;;9.90;3.40;;;7.40;62.80;;;;;;5028635;28;20117;-61
2021/04/16 02:50:00;;;;;;;7.28;3.45;;;7.30;62.80;;;;;;5044822;28;20539;-61
2021/04/16 02:52:26;;;;;;;8.27;3.78;;;7.30;62.90;;;;;;5025707;28;20034;-61
2021/04/16 02:54:51;;;;;;;6.15;3.20;;;7.30;62.90;;;;;;5028273;28;20471;-61
2021/04/16 02:57:17;;;;;;;7.00;3.10;;;7.30;63.00;;;;;;5033278;28;20060;-61
2021/04/16 02:59:42;;;;;;;5.72;3.17;;;7.20;63.00;;;;;;5048004;28;20462;-61
2021/04/16 03:02:08;;;;;;;7.15;3.00;;;7.20;63.10;;;;;;5027751;28;20025;-61
2021/04/16 03:04:33;;;;;;;8.88;3.22;;;7.20;63.00;;;;;;5040543;28;21176;-61
2021/04/16 03:06:59;;;;;;;5.88;3.50;;;7.20;63.00;;;;;;5032594;28;20024;-60
2021/04/16 03:09:24;;;;;;;7.35;3.53;;;7.20;63.00;;;;;;5065548;28;20027;-61
2021/04/16 03:11:50;;;;;;;8.40;2.95;;;7.20;63.00;;;;;;5013838;28;20480;-60
2021/04/16 03:14:15;;;;;;;6.22;2.80;;;7.20;63.10;;;;;;5060845;28;20021;-61
2021/04/16 03:16:41;;;;;;;8.77;3.65;;;7.10;63.10;;;;;;5047383;28;20024;-60
2021/04/16 03:19:09;;;;;;;5.32;3.10;;;7.00;63.10;;;;;;5014984;28;20489;-60
2021/04/16 03:21:35;;;;;;;6.60;3.20;;;7.10;63.20;;;;;;5034968;28;20029;-61
2021/04/16 03:24:00;;;;;;;4.60;2.80;;;7.10;63.30;;;;;;5029764;28;20047;-60
2021/04/16 03:26:26;;;;;;;5.05;3.13;;;7.10;63.10;;;;;;5049989;28;20027;-60
2021/04/16 03:28:56;;;;;;;8.43;3.00;;;7.10;63.10;;;;;;5043220;28;20021;-60
2021/04/16 03:31:21;;;;;;;5.03;3.25;;;7.10;63.10;;;;;;5029329;28;20047;-61
2021/04/16 03:33:47;;;;;;;8.05;2.95;;;7.10;63.20;;;;;;5030019;28;20020;-61
2021/04/16 03:36:13;;;;;;;7.07;2.35;;;7.00;63.20;;;;;;5020495;28;20500;-60
2021/04/16 03:38:39;;;;;;;6.50;2.92;;;7.00;63.30;;;;;;5032317;28;20384;-60
2021/04/16 03:41:05;;;;;;;6.22;2.80;;;7.00;63.40;;;;;;5003558;28;20032;-60
2021/04/16 03:43:30;;;;;;;5.18;2.70;;;7.00;63.40;;;;;;5025848;28;20040;-60
2021/04/16 03:45:56;;;;;;;9.48;2.95;;;7.00;63.50;;;;;;5045644;28;20574;-60
2021/04/16 03:48:21;;;;;;;6.97;3.03;;;7.00;63.50;;;;;;5031701;28;20082;-60
2021/04/16 03:50:47;;;;;;;5.35;2.67;;;7.00;63.50;;;;;;5031012;28;20017;-61
2021/04/16 03:53:12;;;;;;;6.65;3.00;;;6.90;63.50;;;;;;5029056;28;20025;-60
2021/04/16 03:55:38;;;;;;;6.43;3.25;;;6.90;63.50;;;;;;5022797;28;20094;-60
2021/04/16 03:58:07;;;;;;;3.72;3.03;;;6.90;63.50;;;;;;5027796;28;20606;-60
2021/04/16 04:00:35;;;;;;;6.03;2.78;;;6.90;63.60;;;;;;5039563;28;20023;-60
2021/04/16 04:03:00;;;;;;;6.07;3.10;;;6.90;63.60;;;;;;5035656;28;20112;-60
2021/04/16 04:05:26;;;;;;;6.57;2.95;;;6.90;63.60;;;;;;5030411;28;20575;-60
2021/04/16 04:07:52;;;;;;;6.00;2.92;;;6.80;63.60;;;;;;5015680;28;20391;-60
2021/04/16 04:10:19;;;;;;;7.10;3.10;;;6.80;63.60;;;;;;5028877;28;20094;-60
2021/04/16 04:12:45;;;;;;;6.18;2.78;;;6.80;63.70;;;;;;5042795;28;20305;-60
2021/04/16 04:15:12;;;;;;;6.97;2.70;;;6.80;63.70;;;;;;5020130;28;20074;-60
2021/04/16 04:17:38;;;;;;;4.25;2.92;;;6.80;63.70;;;;;;5045162;28;20403;-62
2021/04/16 04:20:05;;;;;;;4.97;2.60;;;6.80;63.80;;;;;;5024030;28;20025;-60
2021/04/16 04:22:30;;;;;;;5.18;2.95;;;6.80;63.80;;;;;;5012099;28;20034;-61
2021/04/16 04:24:56;;;;;;;7.38;2.97;;;6.80;63.70;;;;;;5058187;28;20047;-62
2021/04/16 04:27:21;;;;;;;4.45;2.83;;;6.70;63.70;;;;;;5035258;28;20043;-60
2021/04/16 04:29:47;;;;;;;4.22;2.85;;;6.70;63.80;;;;;;5054925;28;20031;-61
2021/04/16 04:32:12;;;;;;;4.38;2.85;;;6.70;63.80;;;;;;5042163;28;20103;-60
2021/04/16 04:34:39;;;;;;;3.55;2.40;;;6.70;64.00;;;;;;5037175;28;20422;-60
2021/04/16 04:37:05;;;;;;;4.57;2.72;;;6.60;63.80;;;;;;5038155;28;20074;-59
2021/04/16 04:39:33;;;;;;;5.93;2.95;;;6.60;63.90;;;;;;5036392;28;20024;-60
2021/04/16 04:41:59;;;;;;;3.80;2.38;;;6.60;63.90;;;;;;5028426;28;20445;-60
2021/04/16 04:44:25;;;;;;;5.15;2.90;;;6.60;63.90;;;;;;5029603;28;20024;-60
2021/04/16 04:46:50;;;;;;;5.40;2.90;;;6.60;64.00;;;;;;5050014;28;20052;-60
2021/04/16 04:49:16;;;;;;;5.90;2.65;;;6.60;64.00;;;;;;5035096;28;20052;-60
2021/04/16 04:51:42;;;;;;;4.90;2.70;;;6.50;64.00;;;;;;5038403;28;20024;-60
2021/04/16 04:54:07;;;;;;;5.28;2.88;;;6.50;64.10;;;;;;5033072;28;20026;-61
2021/04/16 04:56:33;;;;;;;4.35;2.60;;;6.50;64.00;;;;;;5045021;28;20167;-60
2021/04/16 04:58:59;;;;;;;5.40;2.65;;;6.50;64.20;;;;;;5040115;28;20039;-60
2021/04/16 05:01:24;;;;;;;5.35;3.10;;;6.50;64.00;;;;;;5058436;28;20043;-60
2021/04/16 05:03:50;;;;;;;4.57;2.67;;;6.50;64.30;;;;;;5042424;28;20158;-60
2021/04/16 05:06:15;;;;;;;5.20;2.40;;;6.50;64.30;;;;;;5036841;28;20066;-60
2021/04/16 05:08:41;;;;;;;5.50;3.03;;;6.50;64.20;;;;;;5035027;28;20032;-60
2021/04/16 05:11:08;;;;;;;5.68;2.65;;;6.40;64.30;;;;;;5034685;28;20078;-60
2021/04/16 05:13:33;;;;;;;3.70;2.67;;;6.50;64.30;;;;;;5049582;28;20248;-61
2021/04/16 05:15:59;;;;;;;4.25;2.83;;;6.50;64.40;;;;;;5045016;28;20112;-60
2021/04/16 05:18:24;;;;;;;4.68;3.28;;;6.40;64.40;;;;;;5022432;28;20029;-60
2021/04/16 05:20:50;;;;;;;4.50;2.70;;;6.40;64.30;;;;;;5025616;28;20032;-59
2021/04/16 05:23:15;;;;;;;4.72;2.97;;;6.40;64.50;;;;;;5028978;28;20121;-60
2021/04/16 05:25:41;;;;;;;4.65;2.53;;;6.40;64.40;;;;;;5043365;28;20478;-60
2021/04/16 05:28:06;;;;;;;4.15;2.65;;;6.40;64.50;;;;;;5045682;28;20052;-60
2021/04/16 05:30:32;;;;;;;4.30;2.50;;;6.30;64.30;;;;;;5039859;28;20028;-60
2021/04/16 05:32:58;;;;;;;3.53;2.60;;;6.40;64.40;;;;;;5037494;28;20534;-60
2021/04/16 05:35:24;;;;;;;3.75;2.63;;;6.30;64.30;;;;;;5003788;28;20080;-60
2021/04/16 05:37:49;;;;;;;4.05;2.78;;;6.40;64.50;;;;;;5041568;28;20033;-60
2021/04/16 05:40:15;;;;;;;4.43;2.50;;;6.30;64.40;;;;;;5054724;28;20016;-60
2021/04/16 05:42:40;;;;;;;4.78;2.92;;;6.40;64.50;;;;;;5032388;28;20115;-60
2021/04/16 05:45:06;;;;;;;5.82;2.70;;;6.30;64.40;;;;;;5037912;28;20213;-60
2021/04/16 05:47:32;;;;;;;4.50;3.17;;;6.30;64.40;;;;;;5047721;28;20040;-60
2021/04/16 05:49:57;;;;;;;6.47;2.92;;;6.30;64.40;;;;;;5046212;28;20085;-60
2021/04/16 05:52:23;;;;;;;3.90;2.90;;;6.30;64.40;;;;;;5014384;28;20053;-61
2021/04/16 05:54:49;;;;;;;5.68;2.90;;;6.30;64.40;;;;;;5004005;28;20029;-60
2021/04/16 05:57:14;;;;;;;4.00;2.80;;;6.20;64.40;;;;;;5030769;28;20108;-60
2021/04/16 05:59:40;;;;;;;7.50;2.83;;;6.30;64.50;;;;;;5056851;28;20033;-61
2021/04/16 06:02:24;;;;;;;5.78;2.83;;;6.30;64.50;;;;;;5023718;28;20384;-60
2021/04/16 06:04:50;;;;;;;6.57;3.10;;;6.30;64.50;;;;;;5033405;28;20025;-60
2021/04/16 06:07:15;;;;;;;5.25;3.35;;;6.30;64.60;;;;;;5053810;28;20102;-60
2021/04/16 06:09:41;;;;;;;7.15;3.17;;;6.20;64.50;;;;;;5019314;28;20067;-60
2021/04/16 06:12:07;;;;;;;14.05;3.70;;;6.30;64.50;;;;;;5053090;28;20029;-60
2021/04/16 06:14:33;;;;;;;6.43;2.90;;;6.30;64.50;;;;;;5024240;28;20020;-60
2021/04/16 06:16:58;;;;;;;14.30;3.22;;;6.20;64.60;;;;;;5016716;28;20736;-60
2021/04/16 06:19:24;;;;;;;10.95;4.13;;;6.20;64.50;;;;;;5017076;28;20099;-60
2021/04/16 06:21:49;;;;;;;16.58;3.78;;;6.20;64.60;;;;;;5019097;28;20102;-60
2021/04/16 06:24:15;;;;;;;20.55;4.03;;;6.20;64.50;;;;;;5041750;28;20091;-60
2021/04/16 06:26:40;;;;;;;11.57;3.22;;;6.20;64.60;;;;;;5022823;28;20051;-60
2021/04/16 06:29:06;;;;;;;27.05;4.15;;;6.20;64.60;;;;;;5035720;28;20503;-60
2021/04/16 06:31:32;;;;;;;12.40;3.85;;;6.20;64.60;;;;;;5015438;28;20132;-60
2021/04/16 06:33:57;;;;;;;16.23;3.72;;;6.20;64.60;;;;;;5038315;28;20033;-60
2021/04/16 06:36:23;;;;;;;20.17;4.32;;;6.20;64.60;;;;;;5017758;28;20172;-60
2021/04/16 06:38:48;;;;;;;20.00;3.28;;;6.20;64.60;;;;;;5001237;28;20106;-60
2021/04/16 06:41:23;;;;;;;11.93;3.42;;;6.20;65.30;;;;;;5022959;28;20120;-61
2021/04/16 06:43:54;;;;;;;19.63;4.50;;;6.20;64.60;;;;;;5021395;28;20037;-60
2021/04/16 06:46:32;;;;;;;15.35;3.38;;;6.20;64.70;;;;;;5029438;28;20450;-61
2021/04/16 06:49:03;;;;;;;19.98;4.13;;;6.20;64.70;;;;;;5046833;28;20236;-60
2021/04/16 06:51:30;;;;;;;19.25;3.95;;;6.20;64.60;;;;;;5050510;28;20020;-60
2021/04/16 06:54:04;;;;;;;17.20;4.30;;;6.10;64.60;;;;;;5064391;28;20371;-60
2021/04/16 06:56:35;;;;;;;12.50;4.10;;;6.20;64.60;;;;;;5052827;28;20124;-60
2021/04/16 06:59:13;;;;;;;13.82;3.42;;;6.20;64.60;;;;;;5048652;28;20532;-60
2021/04/16 07:01:45;;;;;;;22.98;4.88;;;6.20;64.60;;;;;;5072649;28;20108;-61
2021/04/16 07:04:32;;;;;;;20.63;4.20;;;6.20;64.70;;;;;;5052565;28;20096;-63
2021/04/16 07:07:23;;;;;;;16.13;4.45;;;6.20;64.80;;;;;;5031507;28;20033;-61
2021/04/16 07:09:59;;;;;;;11.18;4.75;;;6.20;64.80;;;;;;5017247;28;20189;-62
2021/04/16 07:12:26;;;;;;;18.30;4.28;;;6.20;65.00;;;;;;5032302;28;20036;-60
2021/04/16 07:14:53;;;;;;;14.15;4.45;;;6.20;65.20;;;;;;5057535;28;20790;-60
2021/04/16 07:17:28;;;;;;;12.48;4.28;;;6.20;65.20;;;;;;5071542;28;20031;-60
2021/04/16 07:19:54;;;;;;;;;;;6.20;65.30;;;;;;5069264;28;20520;-60
2021/04/16 07:22:19;;;;;;;;;;;6.20;65.40;;;;;;5066219;28;19952;-60
2021/04/16 07:24:45;;;;;;;10.47;4.77;;;6.10;65.70;;;;;;5071440;28;19912;-60
2021/04/16 07:27:40;;;;;;;7.95;5.15;;;6.10;65.80;;;;;;5037944;28;20041;-60
2021/04/16 07:30:08;;;;;;;19.65;4.60;;;6.10;66.10;;;;;;5059175;28;20040;-60
2021/04/16 07:32:39;;;;;;;12.13;5.00;;;6.10;66.40;;;;;;5059915;28;20112;-60
2021/04/16 07:35:25;;;;;;;11.38;5.03;;;6.10;66.40;;;;;;5056218;28;20033;-60
2021/04/16 07:38:07;;;;;;;11.07;4.88;;;6.10;66.50;;;;;;5066209;28;20686;-60
2021/04/16 07:40:36;;;;;;;11.80;4.65;;;6.10;66.60;;;;;;5064824;28;20064;-60
2021/04/16 07:43:01;;;;;;;9.82;4.55;;;6.10;66.60;;;;;;5075612;28;20039;-60
2021/04/16 07:45:56;;;;;;;10.48;4.90;;;6.10;66.60;;;;;;5057127;28;20562;-60
2021/04/16 07:48:32;;;;;;;9.13;4.90;;;6.10;66.70;;;;;;5045710;28;20036;-60
2021/04/16 07:50:58;;;;;;;;;;;6.10;66.60;;;;;;5026211;28;20029;-61
2021/04/16 07:53:28;;;;;;;14.60;5.20;;;6.10;66.60;;;;;;5049915;28;19916;-61
2021/04/16 07:56:17;;;;;;;9.77;5.07;;;6.10;66.60;;;;;;5048271;28;20449;-61
2021/04/16 07:58:44;;;;;;;11.35;5.72;;;6.20;66.70;;;;;;5052367;28;20059;-61
2021/04/16 08:01:17;;;;;;;9.90;5.93;;;6.20;66.70;;;;;;5054844;28;20036;-61
2021/04/16 08:03:49;;;;;;;13.68;6.35;;;6.20;66.80;;;;;;5053329;28;20318;-61
2021/04/16 08:06:41;;;;;;;19.05;5.70;;;6.20;66.90;;;;;;5047613;28;20074;-61
2021/04/16 08:09:13;;;;;;;16.45;6.40;;;6.20;66.90;;;;;;5058444;28;20131;-60
2021/04/16 08:11:38;;;;;;;14.25;5.65;;;6.20;66.90;;;;;;5054008;28;20036;-61
2021/04/16 08:14:32;;;;;;;9.68;5.53;;;6.20;67.00;;;;;;5042410;28;20516;-62
2021/04/16 08:17:05;;;;;;;12.65;6.20;;;6.20;67.00;;;;;;5046700;28;20690;-61
2021/04/16 08:19:35;;;;;;;8.48;6.05;;;6.20;66.90;;;;;;5039616;28;20113;-61
2021/04/16 08:22:10;;;;;;;13.40;6.40;;;6.20;67.60;;;;;;5055381;28;20064;-61
2021/04/16 08:24:54;;;;;;;10.43;5.75;;;6.20;66.90;;;;;;5050596;28;20028;-61
2021/04/16 08:27:33;;;;;;;21.15;6.53;;;6.20;66.90;;;;;;5056244;28;20040;-61
2021/04/16 08:30:17;;;;;;;11.25;6.40;;;6.20;67.00;;;;;;5073617;28;20236;-61
2021/04/16 08:32:42;;;;;;;18.63;6.50;;;6.20;67.00;;;;;;5071101;28;20063;-61
2021/04/16 08:35:21;;;;;;;16.17;7.07;;;6.20;67.00;;;;;;5070540;28;20067;-61
2021/04/16 08:37:49;;;;;;;7.75;5.85;;;6.20;67.10;;;;;;5077800;28;20105;-61
2021/04/16 08:40:17;;;;;;;8.50;6.53;;;6.10;66.90;;;;;;5070299;28;20468;-61
2021/04/16 08:42:43;;;;;;;10.25;7.38;;;6.20;67.00;;;;;;5068562;28;20367;-60
2021/04/16 08:45:11;;;;;;;19.50;7.07;;;6.20;67.00;;;;;;5064855;28;20111;-60
2021/04/16 08:47:58;;;;;;;11.48;7.40;;;6.20;66.90;;;;;;5074053;28;20148;-61
2021/04/16 08:50:40;;;;;;;16.92;6.93;;;6.30;67.00;;;;;;5072551;28;20024;-60
2021/04/16 08:53:06;;;;;;;13.57;7.50;;;6.30;67.00;;;;;;5055516;28;20013;-61
2021/04/16 08:55:36;;;;;;;14.55;7.30;;;6.30;67.00;;;;;;5079641;28;20025;-61
2021/04/16 08:58:08;;;;;;;20.33;7.25;;;6.30;67.00;;;;;;5070094;28;20400;-61
2021/04/16 09:00:37;;;;;;;18.88;7.72;;;6.30;67.00;;;;;;5042577;28;20624;-61
2021/04/16 09:03:04;;;;;;;16.05;8.00;;;6.30;67.00;;;;;;5053037;28;20032;-61
2021/04/16 09:05:34;;;;;;;10.57;7.15;;;6.30;66.80;;;;;;5050938;28;20028;-61
2021/04/16 09:08:16;;;;;;;17.88;7.30;;;6.40;67.00;;;;;;5049398;28;20483;-60
2021/04/16 09:10:51;;;;;;;14.60;7.97;;;6.40;66.90;;;;;;5066087;28;20040;-60
2021/04/16 09:13:32;;;;;;;15.40;8.50;;;6.40;66.80;;;;;;5068364;28;20061;-61
2021/04/16 09:16:16;;;;;;;12.23;7.97;;;6.40;66.80;;;;;;5063332;28;20028;-61
2021/04/16 09:18:46;;;;;;;14.48;7.43;;;6.40;66.70;;;;;;5067097;28;20388;-61
2021/04/16 09:21:15;;;;;;;18.52;7.97;;;6.60;66.80;;;;;;5059127;28;20020;-61
2021/04/16 09:23:41;;;;;;;12.57;7.80;;;6.50;66.60;;;;;;5044862;28;20026;-61
2021/04/16 09:26:07;;;;;;;12.40;8.00;;;6.50;66.60;;;;;;5073271;28;20029;-61
2021/04/16 09:28:54;;;;;;;15.98;8.35;;;6.50;66.50;;;;;;5048972;28;20426;-60
2021/04/16 09:31:24;;;;;;;13.85;8.40;;;6.50;66.40;;;;;;5056429;28;20550;-61
2021/04/16 09:34:09;;;;;;;10.82;8.00;;;6.60;66.40;;;;;;5061123;28;20032;-61
2021/04/16 09:36:38;;;;;;;13.13;8.27;;;6.60;66.30;;;;;;5051962;28;20132;-60
2021/04/16 09:39:27;;;;;;;11.75;8.10;;;6.70;66.10;;;;;;5067963;28;20044;-61
2021/04/16 09:41:55;;;;;;;10.82;7.47;;;6.70;66.00;;;;;;5035094;28;20550;-61
2021/04/16 09:44:26;;;;;;;10.25;7.75;;;6.70;65.70;;;;;;5063827;28;20025;-61
2021/04/16 09:46:52;;;;;;;11.60;8.13;;;6.80;65.40;;;;;;5043277;28;20053;-61
2021/04/16 09:49:23;;;;;;;10.35;7.68;;;6.80;65.40;;;;;;5021280;28;20396;-61
2021/04/16 09:51:49;;;;;;;10.10;7.47;;;6.90;65.40;;;;;;5039256;28;20427;-60
2021/04/16 09:54:21;;;;;;;13.38;7.57;;;6.90;65.30;;;;;;5043877;28;20029;-61
2021/04/16 09:57:08;;;;;;;8.20;7.03;;;6.90;65.20;;;;;;5040754;28;20063;-61
2021/04/16 09:59:36;;;;;;;9.50;6.88;;;7.00;65.10;;;;;;5006964;28;20159;-61
2021/04/16 10:02:11;;;;;;;14.43;7.75;;;7.00;65.00;;;;;;5041716;28;20024;-61
2021/04/16 10:04:57;;;;;;;8.80;6.83;;;7.10;65.10;;;;;;5048864;28;20044;-61
2021/04/16 10:07:51;;;;;;;10.20;7.13;;;7.10;64.80;;;;;;5036265;28;20049;-61
2021/04/16 10:10:30;;;;;;;9.68;6.93;;;7.10;64.60;;;;;;5042085;28;20060;-61
2021/04/16 10:13:30;;;;;;;10.82;7.43;;;7.20;64.50;;;;;;5024872;28;20025;-60
2021/04/16 10:15:56;;;;;;;8.60;7.57;;;7.20;64.30;;;;;;5024583;28;20028;-61
2021/04/16 10:18:31;;;;;;;11.18;6.70;;;7.20;64.20;;;;;;5032427;28;20033;-61
2021/04/16 10:21:03;;;;;;;8.97;6.87;;;7.30;64.20;;;;;;5017460;28;20033;-61
2021/04/16 10:23:43;;;;;;;9.52;6.72;;;7.30;64.00;;;;;;5045219;28;20037;-61
2021/04/16 11:24:22;;;;;;;9.77;6.28;;;8.40;58.30;;;;;;5029883;28;19955;-61
2021/04/16 12:40:24;;;;;;;6.60;4.22;;;10.00;53.10;;;;;;5063497;28;20444;-61
2021/04/16 12:42:50;;;;;;;6.22;5.00;;;10.00;53.30;;;;;;5060289;28;20447;-64
2021/04/16 12:45:16;;;;;;;5.95;4.60;;;10.00;53.40;;;;;;5060432;28;20044;-61
2021/04/16 12:47:42;;;;;;;13.80;5.25;;;10.00;53.50;;;;;;5004204;28;20084;-63
2021/04/16 12:50:08;;;;;;;15.18;4.95;;;10.00;53.50;;;;;;5023074;28;20404;-64
2021/04/16 12:52:33;;;;;;;12.77;5.10;;;10.10;53.30;;;;;;5044374;28;20037;-62
2021/04/16 12:54:59;;;;;;;14.43;5.55;;;10.10;53.20;;;;;;5035790;28;20542;-61
2021/04/16 12:57:42;;;;;;;11.20;5.00;;;10.20;53.30;;;;;;5024089;28;20321;-65
2021/04/16 13:00:10;;;;;;;10.32;4.97;;;10.20;53.20;;;;;;5011115;28;20029;-61
2021/04/16 13:02:36;;;;;;;33.30;7.65;;;10.30;52.70;;;;;;4995087;28;20051;-61
2021/04/16 13:05:06;;;;;;;12.23;5.28;;;10.30;52.50;;;;;;5016897;28;20033;-63
2021/04/16 13:07:31;;;;;;;11.48;4.80;;;10.30;52.50;;;;;;4998183;28;20561;-61
2021/04/16 13:09:57;;;;;;;6.93;4.57;;;10.40;52.10;;;;;;5036009;28;20132;-62
2021/04/16 13:12:23;;;;;;;15.52;5.03;;;10.50;51.70;;;;;;5020422;28;20072;-62
2021/04/16 13:14:48;;;;;;;6.95;4.00;;;10.50;52.00;;;;;;5018051;28;20115;-62
2021/04/16 13:17:15;;;;;;;10.48;4.47;;;10.60;51.90;;;;;;5008998;28;20610;-61
2021/04/16 13:19:42;;;;;;;8.02;4.82;;;10.70;52.00;;;;;;5010880;28;20447;-61
2021/04/16 13:22:12;;;;;;;13.23;4.18;;;10.80;51.80;;;;;;5027383;28;20139;-61
2021/04/16 13:24:38;;;;;;;15.30;4.95;;;10.90;51.80;;;;;;5040013;28;20022;-61
2021/04/16 13:27:05;;;;;;;8.23;5.00;;;11.00;51.50;;;;;;5038261;28;20311;-62
2021/04/16 13:29:31;;;;;;;14.15;4.90;;;11.00;51.20;;;;;;5026775;28;20021;-62
2021/04/16 13:31:56;;;;;;;11.50;4.95;;;11.10;51.50;;;;;;5048442;28;20091;-62
2021/04/16 13:34:22;;;;;;;10.50;4.10;;;11.20;51.20;;;;;;5032863;28;20043;-62
2021/04/16 13:36:48;;;;;;;6.15;3.85;;;11.20;51.00;;;;;;5016777;28;20017;-62
2021/04/16 13:39:13;;;;;;;11.55;4.35;;;11.30;50.60;;;;;;5036227;28;20102;-62
2021/04/16 13:41:39;;;;;;;6.15;4.30;;;11.20;50.70;;;;;;5008911;28;20099;-62
2021/04/16 13:44:04;;;;;;;10.75;4.55;;;11.20;50.70;;;;;;5023830;28;20037;-62
2021/04/16 13:46:30;;;;;;;15.45;5.60;;;11.20;50.30;;;;;;5051596;28;20079;-61
2021/04/16 13:48:56;;;;;;;12.18;6.15;;;11.20;50.40;;;;;;5053993;28;20135;-61
2021/04/16 13:51:22;;;;;;;11.25;4.97;;;11.20;50.30;;;;;;5062240;28;20029;-62
2021/04/16 13:53:48;;;;;;;8.98;4.53;;;11.30;50.40;;;;;;5062460;28;20025;-62
2021/04/16 13:56:14;;;;;;;9.60;4.07;;;11.30;50.40;;;;;;5049918;28;20090;-62
2021/04/16 13:58:39;;;;;;;16.50;4.90;;;11.40;50.50;;;;;;5045759;28;20036;-63
2021/04/16 14:01:06;;;;;;;19.63;5.28;;;11.40;50.50;;;;;;5062876;28;20036;-63
2021/04/16 14:03:36;;;;;;;9.50;4.47;;;11.50;50.50;;;;;;5064166;28;20039;-62
2021/04/16 14:06:20;;;;;;;8.05;4.65;;;11.50;50.30;;;;;;5057789;28;20468;-63
2021/04/16 14:08:55;;;;;;;12.73;4.45;;;11.60;50.20;;;;;;5024159;28;20028;-61
2021/04/16 14:11:21;;;;;;;10.60;3.92;;;11.70;50.00;;;;;;5060097;28;20036;-60
2021/04/16 14:13:47;;;;;;;13.57;4.07;;;11.70;49.80;;;;;;5033841;28;20024;-61
2021/04/16 14:16:25;;;;;;;11.88;4.43;;;11.70;50.00;;;;;;5048657;28;20048;-60
2021/04/16 14:18:50;;;;;;;12.05;3.70;;;11.70;50.00;;;;;;5061272;28;20024;-61
2021/04/16 14:21:17;;;;;;;18.10;4.82;;;11.70;49.90;;;;;;5064200;28;20526;-61
2021/04/16 14:23:43;;;;;;;11.30;3.55;;;11.90;49.70;;;;;;5057011;28;20421;-61
2021/04/16 14:26:09;;;;;;;24.63;4.03;;;11.90;49.60;;;;;;5056245;28;20037;-60
2021/04/16 14:28:35;;;;;;;13.30;3.80;;;11.90;49.50;;;;;;5055714;28;20113;-60
2021/04/16 14:31:00;;;;;;;13.30;4.03;;;12.00;49.70;;;;;;5056227;28;20107;-61
2021/04/16 14:33:27;;;;;;;10.15;3.97;;;12.00;49.80;;;;;;5048817;28;20209;-60
2021/04/16 14:35:53;;;;;;;17.13;3.85;;;12.10;49.50;;;;;;5037514;28;20465;-60
2021/04/16 14:38:19;;;;;;;9.63;3.88;;;12.10;49.60;;;;;;5064775;28;20174;-60
2021/04/16 14:40:45;;;;;;;21.58;4.07;;;12.10;49.10;;;;;;5040566;28;20488;-61
2021/04/16 14:43:10;;;;;;;11.90;3.90;;;12.10;49.10;;;;;;5049543;28;20090;-60
2021/04/16 14:45:39;;;;;;;9.43;3.22;;;12.20;49.10;;;;;;5061472;28;20154;-61
2021/04/16 14:48:05;;;;;;;9.45;3.25;;;12.20;48.90;;;;;;5057609;28;20025;-61
2021/04/16 14:50:30;;;;;;;9.40;3.53;;;12.20;48.80;;;;;;5050961;28;20059;-60
2021/04/16 14:53:00;;;;;;;8.55;3.30;;;12.30;48.90;;;;;;5040662;28;20124;-61
2021/04/16 14:55:32;;;;;;;6.38;3.17;;;12.30;48.70;;;;;;5059315;28;20036;-60
2021/04/16 14:57:57;;;;;;;11.25;3.20;;;12.40;48.70;;;;;;5054036;28;20033;-61
2021/04/16 15:00:24;;;;;;;5.57;3.70;;;12.40;48.20;;;;;;5049786;28;20025;-61
2021/04/16 15:02:50;;;;;;;5.65;2.90;;;12.40;47.90;;;;;;5063346;28;20120;-61
2021/04/16 15:05:18;;;;;;;10.07;4.20;;;12.30;47.80;;;;;;5053681;28;20159;-61
2021/04/16 15:07:51;;;;;;;10.10;3.50;;;12.30;47.90;;;;;;5042715;28;20028;-61
2021/04/16 15:10:23;;;;;;;6.38;3.28;;;12.20;48.10;;;;;;5059265;28;20255;-61